createdAt,value
2022-10-17T00:00:26.406Z,92.02
2022-10-17T00:01:25.558Z,92.02
2022-10-17T00:02:25.585Z,91.91
2022-10-17T00:03:26.747Z,91.91
2022-10-17T00:04:26.977Z,91.82
2022-10-17T00:05:25.977Z,91.82
2022-10-17T00:06:26.132Z,91.71
2022-10-17T00:07:25.422Z,91.71
2022-10-17T00:08:27.421Z,91.61
2022-10-17T00:09:26.131Z,91.61
2022-10-17T00:10:27.520Z,91.41
2022-10-17T00:11:27.411Z,91.21
2022-10-17T00:12:25.483Z,91.31
2022-10-17T00:13:27.717Z,91.31
2022-10-17T00:14:26.755Z,91.21
2022-10-17T00:15:25.842Z,91.21
2022-10-17T00:16:25.990Z,91.11
2022-10-17T00:17:25.300Z,91.11
2022-10-17T00:18:26.214Z,91.21
2022-10-17T00:19:25.331Z,91.11
2022-10-17T00:20:25.443Z,91.01
2022-10-17T00:21:25.109Z,90.77
2022-10-17T00:22:27.417Z,90.91
2022-10-17T00:23:26.393Z,90.77
2022-10-17T00:24:25.474Z,90.77
2022-10-17T00:25:55.678Z,90.91
2022-10-17T00:26:25.733Z,90.91
2022-10-17T00:27:26.319Z,90.81
2022-10-17T00:28:27.198Z,90.91
2022-10-17T00:29:40.663Z,90.91
2022-10-17T00:30:25.242Z,90.91
2022-10-17T00:31:25.354Z,90.70
2022-10-17T00:32:25.669Z,90.70
2022-10-17T00:33:25.636Z,90.81
2022-10-17T00:34:26.376Z,90.81
2022-10-17T00:35:25.924Z,90.81
2022-10-17T00:36:25.007Z,90.70
2022-10-17T00:37:25.150Z,90.70
2022-10-17T00:38:25.290Z,90.70
2022-10-17T00:39:25.405Z,90.70
2022-10-17T00:40:26.705Z,90.70
2022-10-17T00:41:26.745Z,90.50
2022-10-17T00:42:25.119Z,90.30
2022-10-17T00:43:24.875Z,90.16
2022-10-17T00:44:24.996Z,90.06
2022-10-17T00:45:25.115Z,89.75
2022-10-17T00:46:25.294Z,89.65
2022-10-17T00:47:25.380Z,89.55
2022-10-17T00:48:25.531Z,89.45
2022-10-17T00:49:25.698Z,89.35
2022-10-17T00:50:24.751Z,89.35
2022-10-17T00:51:24.885Z,89.25
2022-10-17T00:52:24.931Z,89.25
2022-10-17T00:53:25.869Z,89.05
2022-10-17T00:54:26.003Z,89.15
2022-10-17T00:55:25.100Z,89.15
2022-10-17T00:56:25.249Z,89.05
2022-10-17T00:57:25.431Z,89.05
2022-10-17T00:58:25.528Z,89.15
2022-10-17T00:59:25.658Z,88.95
2022-10-17T01:00:25.790Z,88.95
2022-10-17T01:01:24.942Z,88.85
2022-10-17T01:02:25.090Z,88.85
2022-10-17T01:03:25.144Z,88.75
2022-10-17T01:04:25.219Z,88.75
2022-10-17T01:05:26.380Z,88.75
2022-10-17T01:06:25.448Z,88.75
2022-10-17T01:07:24.488Z,88.65
2022-10-17T01:08:26.710Z,88.34
2022-10-17T01:09:26.772Z,88.34
2022-10-17T01:10:24.845Z,88.14
2022-10-17T01:11:24.962Z,88.14
2022-10-17T01:12:25.435Z,88.24
2022-10-17T01:13:26.192Z,88.34
2022-10-17T01:14:26.590Z,88.24
2022-10-17T01:15:25.392Z,88.14
2022-10-17T01:16:24.439Z,88.24
2022-10-17T01:17:24.582Z,88.14
2022-10-17T01:18:25.707Z,88.24
2022-10-17T01:20:24.930Z,88.24
2022-10-17T01:21:25.042Z,88.14
2022-10-17T01:22:25.354Z,88.14
2022-10-17T01:23:25.299Z,88.04
2022-10-17T01:24:24.344Z,88.04
2022-10-17T01:25:25.734Z,88.14
2022-10-17T01:26:24.582Z,88.04
2022-10-17T01:27:24.663Z,87.94
2022-10-17T01:28:24.958Z,87.94
2022-10-17T01:29:24.923Z,87.94
2022-10-17T01:30:25.036Z,87.94
2022-10-17T01:31:26.216Z,87.84
2022-10-17T01:32:25.502Z,87.80
2022-10-17T01:33:24.298Z,87.60
2022-10-17T01:34:26.404Z,87.60
2022-10-17T01:35:25.566Z,87.60
2022-10-17T01:36:24.642Z,87.70
2022-10-17T01:37:24.937Z,87.84
2022-10-17T01:38:24.854Z,87.74
2022-10-17T01:39:26.923Z,87.84
2022-10-17T01:40:25.083Z,87.74
2022-10-17T01:41:24.137Z,87.40
2022-10-17T01:42:24.226Z,87.40
2022-10-17T01:43:24.345Z,87.40
2022-10-17T01:44:24.420Z,87.40
2022-10-17T01:45:24.544Z,87.19
2022-10-17T01:46:24.665Z,87.29
2022-10-17T01:47:24.917Z,87.49
2022-10-17T01:48:23.846Z,87.63
2022-10-17T01:49:23.974Z,87.74
2022-10-17T01:50:24.043Z,87.74
2022-10-17T01:51:24.168Z,87.94
2022-10-17T01:52:24.300Z,87.84
2022-10-17T01:53:24.428Z,88.04
2022-10-17T01:54:24.577Z,88.04
2022-10-17T01:55:26.737Z,88.04
2022-10-17T01:56:24.747Z,87.94
2022-10-17T01:57:23.827Z,88.04
2022-10-17T01:58:25.998Z,88.14
2022-10-17T01:59:26.117Z,88.04
2022-10-17T02:00:24.124Z,88.04
2022-10-17T02:01:25.293Z,88.04
2022-10-17T02:02:26.433Z,88.04
2022-10-17T02:03:25.696Z,87.94
2022-10-17T02:04:24.767Z,87.84
2022-10-17T02:05:24.889Z,87.63
2022-10-17T02:06:24.979Z,87.54
2022-10-17T02:07:25.368Z,87.54
2022-10-17T02:08:26.270Z,87.43
2022-10-17T02:09:26.403Z,87.43
2022-10-17T02:10:24.452Z,87.43
2022-10-17T02:11:25.664Z,87.34
2022-10-17T02:12:23.681Z,87.34
2022-10-17T02:13:23.800Z,87.43
2022-10-17T02:14:24.960Z,87.23
2022-10-17T02:15:24.041Z,87.09
2022-10-17T02:16:24.121Z,87.09
2022-10-17T02:17:24.273Z,86.99
2022-10-17T02:18:25.378Z,87.09
2022-10-17T02:19:24.435Z,87.09
2022-10-17T02:20:23.532Z,86.89
2022-10-17T02:21:23.661Z,86.89
2022-10-17T02:22:24.833Z,86.69
2022-10-17T02:23:23.886Z,86.79
2022-10-17T02:24:25.003Z,86.89
2022-10-17T02:25:25.119Z,87.09
2022-10-17T02:26:24.195Z,86.99
2022-10-17T02:27:24.233Z,87.09
2022-10-17T02:28:23.985Z,87.19
2022-10-17T02:29:23.490Z,87.34
2022-10-17T02:30:23.608Z,87.34
2022-10-17T02:31:23.683Z,87.23
2022-10-17T02:32:23.782Z,87.34
2022-10-17T02:33:23.866Z,87.43
2022-10-17T02:34:24.008Z,87.54
2022-10-17T02:35:38.529Z,87.54
2022-10-17T02:36:24.114Z,87.63
2022-10-17T02:37:23.148Z,87.74
2022-10-17T02:38:25.303Z,87.74
2022-10-17T02:39:23.324Z,87.74
2022-10-17T02:40:23.634Z,87.74
2022-10-17T02:41:23.578Z,87.94
2022-10-17T02:42:23.605Z,88.14
2022-10-17T02:43:24.717Z,88.28
2022-10-17T02:44:23.818Z,88.18
2022-10-17T02:45:23.887Z,88.08
2022-10-17T02:46:23.993Z,88.08
2022-10-17T02:47:23.064Z,88.18
2022-10-17T02:48:23.189Z,88.28
2022-10-17T02:49:23.288Z,88.18
2022-10-17T02:50:23.444Z,88.08
2022-10-17T02:51:23.546Z,88.04
2022-10-17T02:52:23.608Z,87.98
2022-10-17T02:53:24.755Z,88.18
2022-10-17T02:54:24.874Z,88.04
2022-10-17T02:55:24.989Z,88.04
2022-10-17T02:56:24.355Z,87.94
2022-10-17T02:57:24.436Z,87.84
2022-10-17T02:58:23.519Z,87.74
2022-10-17T02:59:23.729Z,87.74
2022-10-17T03:00:24.833Z,87.63
2022-10-17T03:01:23.981Z,87.63
2022-10-17T03:02:25.107Z,87.54
2022-10-17T03:03:24.115Z,87.63
2022-10-17T03:04:27.250Z,87.54
2022-10-17T03:05:27.338Z,87.34
2022-10-17T03:06:24.424Z,87.23
2022-10-17T03:07:23.516Z,87.34
2022-10-17T03:08:24.581Z,87.34
2022-10-17T03:09:23.577Z,87.23
2022-10-17T03:10:23.678Z,87.23
2022-10-17T03:11:23.789Z,87.03
2022-10-17T03:12:23.939Z,87.13
2022-10-17T03:13:24.060Z,87.13
2022-10-17T03:14:24.251Z,87.13
2022-10-17T03:15:24.318Z,87.13
2022-10-17T03:16:24.396Z,87.13
2022-10-17T03:17:23.499Z,87.23
2022-10-17T03:18:24.626Z,87.34
2022-10-17T03:19:24.874Z,87.23
2022-10-17T03:20:22.771Z,87.23
2022-10-17T03:21:22.883Z,87.23
2022-10-17T03:22:22.720Z,87.23
2022-10-17T03:23:24.880Z,87.23
2022-10-17T03:24:25.001Z,87.03
2022-10-17T03:25:32.280Z,86.93
2022-10-17T03:26:23.124Z,86.83
2022-10-17T03:27:24.292Z,86.83
2022-10-17T03:28:24.411Z,86.83
2022-10-17T03:29:23.441Z,86.73
2022-10-17T03:30:23.467Z,86.83
2022-10-17T03:31:24.553Z,86.83
2022-10-17T03:32:23.632Z,86.83
2022-10-17T03:33:24.499Z,86.83
2022-10-17T03:34:24.636Z,86.83
2022-10-17T03:35:22.705Z,86.73
2022-10-17T03:36:24.943Z,86.63
2022-10-17T03:37:22.964Z,86.53
2022-10-17T03:38:24.171Z,86.53
2022-10-17T03:39:23.267Z,86.43
2022-10-17T03:40:22.363Z,86.33
2022-10-17T03:41:23.552Z,86.22
2022-10-17T03:42:24.791Z,86.33
2022-10-17T03:43:22.767Z,86.33
2022-10-17T03:44:23.963Z,86.33
2022-10-17T03:45:29.284Z,86.43
2022-10-17T03:46:23.214Z,86.33
2022-10-17T03:47:23.383Z,86.22
2022-10-17T03:48:23.555Z,86.22
2022-10-17T03:49:23.374Z,86.13
2022-10-17T03:50:24.546Z,86.13
2022-10-17T03:51:22.615Z,85.92
2022-10-17T03:52:23.764Z,85.88
2022-10-17T03:53:22.869Z,85.88
2022-10-17T03:54:23.041Z,85.78
2022-10-17T03:55:23.117Z,85.88
2022-10-17T03:56:22.188Z,85.88
2022-10-17T03:57:22.331Z,85.88
2022-10-17T03:58:22.465Z,85.78
2022-10-17T03:59:22.568Z,85.88
2022-10-17T04:00:31.053Z,85.88
2022-10-17T04:01:22.869Z,85.82
2022-10-17T04:02:22.939Z,86.02
2022-10-17T04:03:22.047Z,85.72
2022-10-17T04:04:23.199Z,85.72
2022-10-17T04:05:22.290Z,85.82
2022-10-17T04:06:22.443Z,85.68
2022-10-17T04:07:23.631Z,85.48
2022-10-17T04:08:22.632Z,85.38
2022-10-17T04:09:22.758Z,85.28
2022-10-17T04:10:23.897Z,85.28
2022-10-17T04:11:24.047Z,85.17
2022-10-17T04:12:24.163Z,85.28
2022-10-17T04:13:23.249Z,85.28
2022-10-17T04:14:23.369Z,85.28
2022-10-17T04:15:22.489Z,85.17
2022-10-17T04:16:22.600Z,85.08
2022-10-17T04:17:23.839Z,85.08
2022-10-17T04:18:23.907Z,85.17
2022-10-17T04:19:24.035Z,85.08
2022-10-17T04:20:22.090Z,85.17
2022-10-17T04:21:22.221Z,85.17
2022-10-17T04:22:22.353Z,85.17
2022-10-17T04:23:22.788Z,85.28
2022-10-17T04:24:22.589Z,85.28
2022-10-17T04:25:22.713Z,85.42
2022-10-17T04:26:22.817Z,85.52
2022-10-17T04:27:21.933Z,85.42
2022-10-17T04:28:24.345Z,85.31
2022-10-17T04:29:23.197Z,85.62
2022-10-17T04:30:22.288Z,85.72
2022-10-17T04:31:36.903Z,85.92
2022-10-17T04:32:22.527Z,86.02
2022-10-17T04:33:22.611Z,86.22
2022-10-17T04:34:23.773Z,86.57
2022-10-17T04:35:36.609Z,86.67
2022-10-17T04:36:22.195Z,86.77
2022-10-17T04:37:22.296Z,86.97
2022-10-17T04:38:27.609Z,87.07
2022-10-17T04:39:23.554Z,87.18
2022-10-17T04:40:23.746Z,87.18
2022-10-17T04:41:21.735Z,87.18
2022-10-17T04:42:21.844Z,87.18
2022-10-17T04:43:21.616Z,87.07
2022-10-17T04:44:21.702Z,87.18
2022-10-17T04:45:22.005Z,87.27
2022-10-17T04:46:22.056Z,87.32
2022-10-17T04:47:21.933Z,87.32
2022-10-17T04:48:22.019Z,87.27
2022-10-17T04:49:23.063Z,87.07
2022-10-17T04:50:22.176Z,86.97
2022-10-17T04:51:24.608Z,86.97
2022-10-17T04:52:26.750Z,86.97
2022-10-17T04:53:22.456Z,86.97
2022-10-17T04:54:24.631Z,87.21
2022-10-17T04:55:22.638Z,87.41
2022-10-17T04:56:23.813Z,87.52
2022-10-17T04:57:22.828Z,87.62
2022-10-17T04:58:21.438Z,87.52
2022-10-17T04:59:23.026Z,87.52
2022-10-17T05:00:23.109Z,87.62
2022-10-17T05:01:22.189Z,87.52
2022-10-17T05:02:22.276Z,87.52
2022-10-17T05:03:22.387Z,87.52
2022-10-17T05:04:24.775Z,87.41
2022-10-17T05:05:23.666Z,87.32
2022-10-17T05:06:21.684Z,87.32
2022-10-17T05:07:21.776Z,87.21
2022-10-17T05:08:24.007Z,87.32
2022-10-17T05:09:36.540Z,87.32
2022-10-17T05:10:22.163Z,87.52
2022-10-17T05:11:21.233Z,87.52
2022-10-17T05:12:23.365Z,87.62
2022-10-17T05:13:21.458Z,87.72
2022-10-17T05:14:21.662Z,87.86
2022-10-17T05:15:22.720Z,87.76
2022-10-17T05:16:21.812Z,87.86
2022-10-17T05:17:22.922Z,87.96
2022-10-17T05:18:22.044Z,87.96
2022-10-17T05:19:21.141Z,87.96
2022-10-17T05:20:21.329Z,88.06
2022-10-17T05:21:21.494Z,88.26
2022-10-17T05:22:21.513Z,88.37
2022-10-17T05:23:21.646Z,88.47
2022-10-17T05:24:21.782Z,88.61
2022-10-17T05:25:22.443Z,88.71
2022-10-17T05:26:21.012Z,88.71
2022-10-17T05:27:21.137Z,88.61
2022-10-17T05:28:22.315Z,88.61
2022-10-17T05:29:22.424Z,88.71
2022-10-17T05:30:22.625Z,88.81
2022-10-17T05:31:22.676Z,88.81
2022-10-17T05:32:22.803Z,88.92
2022-10-17T05:33:22.917Z,88.92
2022-10-17T05:34:22.011Z,89.12
2022-10-17T05:35:22.305Z,89.12
2022-10-17T05:36:21.274Z,89.32
2022-10-17T05:37:21.408Z,89.42
2022-10-17T05:38:22.545Z,89.52
2022-10-17T05:39:21.633Z,89.52
2022-10-17T05:40:21.791Z,89.62
2022-10-17T05:41:20.836Z,89.76
2022-10-17T05:42:22.146Z,89.87
2022-10-17T05:43:21.123Z,89.97
2022-10-17T05:44:21.245Z,90.17
2022-10-17T05:45:21.400Z,90.27
2022-10-17T05:46:21.537Z,90.27
2022-10-17T05:47:21.676Z,90.27
2022-10-17T05:48:20.835Z,90.37
2022-10-17T05:49:32.670Z,90.47
2022-10-17T05:50:22.056Z,90.47
2022-10-17T05:51:21.193Z,90.47
2022-10-17T05:52:21.333Z,90.58
2022-10-17T05:53:21.505Z,90.58
2022-10-17T05:54:20.621Z,90.58
2022-10-17T05:55:22.787Z,90.62
2022-10-17T05:56:20.846Z,90.72
2022-10-17T05:57:21.998Z,90.82
2022-10-17T05:58:22.395Z,90.82
2022-10-17T05:59:23.320Z,90.82
2022-10-17T06:00:22.367Z,90.82
2022-10-17T06:01:22.485Z,90.92
2022-10-17T06:02:22.665Z,90.92
2022-10-17T06:03:22.722Z,90.92
2022-10-17T06:04:20.883Z,91.02
2022-10-17T06:05:23.999Z,91.02
2022-10-17T06:06:22.144Z,91.12
2022-10-17T06:07:21.118Z,91.02
2022-10-17T06:08:21.243Z,91.12
2022-10-17T06:09:20.355Z,91.22
2022-10-17T06:10:22.575Z,91.32
2022-10-17T06:11:22.731Z,91.32
2022-10-17T06:12:20.780Z,91.32
2022-10-17T06:13:20.935Z,91.47
2022-10-17T06:14:21.069Z,91.57
2022-10-17T06:15:21.275Z,91.67
2022-10-17T06:16:20.345Z,91.87
2022-10-17T06:17:20.487Z,91.87
2022-10-17T06:18:21.537Z,91.97
2022-10-17T06:19:20.732Z,92.08
2022-10-17T06:20:20.890Z,92.08
2022-10-17T06:21:21.081Z,92.08
2022-10-17T06:22:21.188Z,92.08
2022-10-17T06:23:20.304Z,92.18
2022-10-17T06:24:20.399Z,92.28
2022-10-17T06:25:20.571Z,92.38
2022-10-17T06:26:20.663Z,92.38
2022-10-17T06:27:20.806Z,92.58
2022-10-17T06:28:21.244Z,92.58
2022-10-17T06:29:21.111Z,92.72
2022-10-17T06:30:20.157Z,92.83
2022-10-17T06:31:20.268Z,92.93
2022-10-17T06:32:20.393Z,92.79
2022-10-17T06:33:20.532Z,92.83
2022-10-17T06:34:20.702Z,92.93
2022-10-17T06:35:20.806Z,92.93
2022-10-17T06:36:20.978Z,93.03
2022-10-17T06:37:20.030Z,93.03
2022-10-17T06:38:20.131Z,93.23
2022-10-17T06:39:20.283Z,93.23
2022-10-17T06:40:20.420Z,93.23
2022-10-17T06:41:20.520Z,93.23
2022-10-17T06:42:20.655Z,93.23
2022-10-17T06:43:25.566Z,93.33
2022-10-17T06:44:20.865Z,93.13
2022-10-17T06:45:19.990Z,93.13
2022-10-17T06:46:20.163Z,93.03
2022-10-17T06:47:20.336Z,93.03
2022-10-17T06:48:20.403Z,92.99
2022-10-17T06:49:20.545Z,92.88
2022-10-17T06:50:20.655Z,92.79
2022-10-17T06:51:20.839Z,92.79
2022-10-17T06:52:19.862Z,92.68
2022-10-17T06:53:19.993Z,92.68
2022-10-17T06:54:20.123Z,92.68
2022-10-17T06:55:23.009Z,92.79
2022-10-17T06:56:20.374Z,92.68
2022-10-17T06:57:20.518Z,92.68
2022-10-17T06:58:20.614Z,92.58
2022-10-17T06:59:19.690Z,92.28
2022-10-17T07:00:19.829Z,92.28
2022-10-17T07:01:19.945Z,92.24
2022-10-17T07:02:20.084Z,92.03
2022-10-17T07:03:20.236Z,91.83
2022-10-17T07:04:20.344Z,91.73
2022-10-17T07:05:21.410Z,91.83
2022-10-17T07:06:20.598Z,91.83
2022-10-17T07:07:19.709Z,91.73
2022-10-17T07:08:19.819Z,91.18
2022-10-17T07:09:19.981Z,90.98
2022-10-17T07:10:20.045Z,90.78
2022-10-17T07:11:20.205Z,90.88
2022-10-17T07:12:20.326Z,90.58
2022-10-17T07:13:20.452Z,90.47
2022-10-17T07:14:19.570Z,90.37
2022-10-17T07:15:19.667Z,90.12
2022-10-17T07:16:19.776Z,90.03
2022-10-17T07:17:19.922Z,90.03
2022-10-17T07:18:20.015Z,89.92
2022-10-17T07:19:20.109Z,89.72
2022-10-17T07:20:20.237Z,89.83
2022-10-17T07:21:20.345Z,89.72
2022-10-17T07:22:19.451Z,89.83
2022-10-17T07:23:19.566Z,89.52
2022-10-17T07:24:19.671Z,89.28
2022-10-17T07:25:19.797Z,89.28
2022-10-17T07:26:19.933Z,89.28
2022-10-17T07:27:20.161Z,89.28
2022-10-17T07:28:20.171Z,89.28
2022-10-17T07:29:20.309Z,89.17
2022-10-17T07:30:19.399Z,89.17
2022-10-17T07:31:19.596Z,89.28
2022-10-17T07:32:19.696Z,89.17
2022-10-17T07:33:19.801Z,89.07
2022-10-17T07:34:19.955Z,88.97
2022-10-17T07:35:20.098Z,88.97
2022-10-17T07:36:20.184Z,88.97
2022-10-17T07:37:20.342Z,88.97
2022-10-17T07:38:19.414Z,88.97
2022-10-17T07:39:19.564Z,89.07
2022-10-17T07:40:19.673Z,89.28
2022-10-17T07:41:21.823Z,89.37
2022-10-17T07:42:20.001Z,89.48
2022-10-17T07:43:20.081Z,89.48
2022-10-17T07:44:19.182Z,89.48
2022-10-17T07:45:19.385Z,89.58
2022-10-17T07:46:19.448Z,89.68
2022-10-17T07:47:19.592Z,89.58
2022-10-17T07:48:19.759Z,89.68
2022-10-17T07:49:19.862Z,89.68
2022-10-17T07:50:19.983Z,89.58
2022-10-17T07:51:19.095Z,89.48
2022-10-17T07:52:20.245Z,89.48
2022-10-17T07:53:20.469Z,89.37
2022-10-17T07:54:19.458Z,89.68
2022-10-17T07:55:19.619Z,89.68
2022-10-17T07:56:19.685Z,89.78
2022-10-17T07:57:19.821Z,89.68
2022-10-17T07:58:18.936Z,89.48
2022-10-17T07:59:20.197Z,89.48
2022-10-17T08:00:20.208Z,89.23
2022-10-17T08:01:19.313Z,89.43
2022-10-17T08:02:19.425Z,89.64
2022-10-17T08:03:19.565Z,89.54
2022-10-17T08:04:19.707Z,89.54
2022-10-17T08:05:19.885Z,89.43
2022-10-17T08:06:18.961Z,89.23
2022-10-17T08:07:23.087Z,89.34
2022-10-17T08:08:20.216Z,89.23
2022-10-17T08:09:19.349Z,89.23
2022-10-17T08:10:19.485Z,89.23
2022-10-17T08:11:19.665Z,88.73
2022-10-17T08:12:18.755Z,88.28
2022-10-17T08:13:18.873Z,88.48
2022-10-17T08:14:19.006Z,88.59
2022-10-17T08:15:19.158Z,88.28
2022-10-17T08:16:19.294Z,88.08
2022-10-17T08:17:19.446Z,88.18
2022-10-17T08:18:19.566Z,88.24
2022-10-17T08:19:19.689Z,87.84
2022-10-17T08:20:19.807Z,87.63
2022-10-17T08:21:20.153Z,87.54
2022-10-17T08:22:19.057Z,87.74
2022-10-17T08:23:19.230Z,87.54
2022-10-17T08:24:19.298Z,87.03
2022-10-17T08:25:19.448Z,86.99
2022-10-17T08:26:18.561Z,87.19
2022-10-17T08:27:19.764Z,86.99
2022-10-17T08:28:19.953Z,86.89
2022-10-17T08:29:20.101Z,86.99
2022-10-17T08:30:20.166Z,86.99
2022-10-17T08:31:19.270Z,86.79
2022-10-17T08:32:19.402Z,86.69
2022-10-17T08:33:18.521Z,86.38
2022-10-17T08:34:21.796Z,86.49
2022-10-17T08:35:18.778Z,86.89
2022-10-17T08:36:18.960Z,87.09
2022-10-17T08:37:19.175Z,86.58
2022-10-17T08:38:21.115Z,86.49
2022-10-17T08:39:19.420Z,86.44
2022-10-17T08:40:19.262Z,86.55
2022-10-17T08:41:18.659Z,86.55
2022-10-17T08:42:18.815Z,86.85
2022-10-17T08:43:19.011Z,86.65
2022-10-17T08:44:19.104Z,86.24
2022-10-17T08:45:19.224Z,86.35
2022-10-17T08:46:18.380Z,86.44
2022-10-17T08:47:18.439Z,86.75
2022-10-17T08:48:18.549Z,86.65
2022-10-17T08:49:18.725Z,86.65
2022-10-17T08:50:18.892Z,86.35
2022-10-17T08:51:19.003Z,86.65
2022-10-17T08:52:19.133Z,86.65
2022-10-17T08:53:19.296Z,86.95
2022-10-17T08:54:18.406Z,87.15
2022-10-17T08:56:19.844Z,86.91
2022-10-17T08:57:20.939Z,86.61
2022-10-17T08:58:19.044Z,86.41
2022-10-17T08:59:19.107Z,86.10
2022-10-17T09:00:18.186Z,86.10
2022-10-17T09:01:19.373Z,86.00
2022-10-17T09:02:18.539Z,86.21
2022-10-17T09:03:19.773Z,86.10
2022-10-17T09:04:19.880Z,86.00
2022-10-17T09:05:22.459Z,85.86
2022-10-17T09:06:19.032Z,86.06
2022-10-17T09:07:19.189Z,86.26
2022-10-17T09:08:19.408Z,86.26
2022-10-17T09:09:18.567Z,85.66
2022-10-17T09:10:18.587Z,85.56
2022-10-17T09:11:19.766Z,85.36
2022-10-17T09:12:19.885Z,86.22
2022-10-17T09:13:18.989Z,85.62
2022-10-17T09:14:20.168Z,84.71
2022-10-17T09:15:19.240Z,85.02
2022-10-17T09:16:18.325Z,85.11
2022-10-17T09:17:19.530Z,84.81
2022-10-17T09:18:21.105Z,85.22
2022-10-17T09:19:19.775Z,84.41
2022-10-17T09:20:19.006Z,84.51
2022-10-17T09:21:18.970Z,84.77
2022-10-17T09:22:19.108Z,85.48
2022-10-17T09:23:18.198Z,85.08
2022-10-17T09:24:19.429Z,83.97
2022-10-17T09:25:19.587Z,83.57
2022-10-17T09:26:18.621Z,83.87
2022-10-17T09:27:17.709Z,84.07
2022-10-17T09:28:18.888Z,84.97
2022-10-17T09:29:18.006Z,84.77
2022-10-17T09:30:33.491Z,85.08
2022-10-17T09:31:20.519Z,84.57
2022-10-17T09:32:19.456Z,84.37
2022-10-17T09:33:28.560Z,84.57
2022-10-17T09:34:24.004Z,85.08
2022-10-17T09:35:18.841Z,85.33
2022-10-17T09:36:19.930Z,85.24
2022-10-17T09:37:18.136Z,84.33
2022-10-17T09:38:19.248Z,83.63
2022-10-17T09:39:18.352Z,84.23
2022-10-17T09:40:19.490Z,84.13
2022-10-17T09:41:43.782Z,83.83
2022-10-17T09:42:18.702Z,83.83
2022-10-17T09:43:19.862Z,83.63
2022-10-17T09:44:17.907Z,83.33
2022-10-17T09:45:18.012Z,82.62
2022-10-17T09:46:19.201Z,83.12
2022-10-17T09:47:19.362Z,83.53
2022-10-17T09:48:19.500Z,83.12
2022-10-17T09:49:17.583Z,83.29
2022-10-17T09:50:19.736Z,82.48
2022-10-17T09:51:25.828Z,81.98
2022-10-17T09:52:18.940Z,82.08
2022-10-17T09:53:18.113Z,82.68
2022-10-17T09:54:18.184Z,82.68
2022-10-17T09:55:18.317Z,83.29
2022-10-17T09:56:17.432Z,83.09
2022-10-17T09:57:17.551Z,82.48
2022-10-17T09:58:17.688Z,82.58
2022-10-17T09:59:17.965Z,82.78
2022-10-17T10:00:17.947Z,82.45
2022-10-17T10:01:21.097Z,82.18
2022-10-17T10:02:19.237Z,82.75
2022-10-17T10:03:18.387Z,83.75
2022-10-17T10:04:17.474Z,82.75
2022-10-17T10:05:17.858Z,82.84
2022-10-17T10:06:17.725Z,82.64
2022-10-17T10:07:17.845Z,82.75
2022-10-17T10:08:18.018Z,82.64
2022-10-17T10:09:18.118Z,83.01
2022-10-17T10:10:19.302Z,82.51
2022-10-17T10:11:19.414Z,82.20
2022-10-17T10:12:19.534Z,83.31
2022-10-17T10:13:19.669Z,81.50
2022-10-17T10:14:18.727Z,81.90
2022-10-17T10:15:18.851Z,82.20
2022-10-17T10:16:17.998Z,82.06
2022-10-17T10:17:19.085Z,82.67
2022-10-17T10:18:18.214Z,82.17
2022-10-17T10:19:18.284Z,81.76
2022-10-17T10:20:20.457Z,82.26
2022-10-17T10:21:18.535Z,81.96
2022-10-17T10:22:18.615Z,81.06
2022-10-17T10:23:18.736Z,80.66
2022-10-17T10:24:17.847Z,80.96
2022-10-17T10:25:18.997Z,80.56
2022-10-17T10:26:20.963Z,80.12
2022-10-17T10:27:19.269Z,80.22
2022-10-17T10:28:18.298Z,80.72
2022-10-17T10:29:18.383Z,80.32
2022-10-17T10:30:18.476Z,80.32
2022-10-17T10:31:17.509Z,79.82
2022-10-17T10:32:24.271Z,81.73
2022-10-17T10:33:18.765Z,82.32
2022-10-17T10:34:17.827Z,81.32
2022-10-17T10:35:17.909Z,80.72
2022-10-17T10:36:17.985Z,80.38
2022-10-17T10:37:17.229Z,79.98
2022-10-17T10:38:17.192Z,80.08
2022-10-17T10:39:17.151Z,79.88
2022-10-17T10:40:18.270Z,80.08
2022-10-17T10:41:19.382Z,79.78
2022-10-17T10:42:17.405Z,80.48
2022-10-17T10:43:20.594Z,79.78
2022-10-17T10:44:17.537Z,79.85
2022-10-17T10:45:35.960Z,78.78
2022-10-17T10:46:18.617Z,78.78
2022-10-17T10:47:16.661Z,78.38
2022-10-17T10:48:20.814Z,79.38
2022-10-17T10:49:17.865Z,79.38
2022-10-17T10:50:16.820Z,78.18
2022-10-17T10:51:16.885Z,79.38
2022-10-17T10:52:18.016Z,79.24
2022-10-17T10:53:18.108Z,77.44
2022-10-17T10:54:17.134Z,78.14
2022-10-17T10:55:17.221Z,77.04
2022-10-17T10:56:17.229Z,77.04
2022-10-17T10:57:18.316Z,77.14
2022-10-17T10:58:19.419Z,76.34
2022-10-17T10:59:17.394Z,77.14
2022-10-17T11:00:17.525Z,79.74
2022-10-17T11:01:18.749Z,77.24
2022-10-17T11:02:17.588Z,76.54
2022-10-17T11:03:17.618Z,76.94
2022-10-17T11:04:16.764Z,77.04
2022-10-17T11:05:16.704Z,78.04
2022-10-17T11:06:17.818Z,78.74
2022-10-17T11:07:16.836Z,78.04
2022-10-17T11:08:17.905Z,77.84
2022-10-17T11:09:16.986Z,78.64
2022-10-17T11:10:16.989Z,79.30
2022-10-17T11:11:17.023Z,79.30
2022-10-17T11:12:17.129Z,80.61
2022-10-17T11:13:17.083Z,77.91
2022-10-17T11:14:18.268Z,78.00
2022-10-17T11:15:17.211Z,77.80
2022-10-17T11:16:20.372Z,77.60
2022-10-17T11:17:17.354Z,76.20
2022-10-17T11:18:18.471Z,76.70
2022-10-17T11:19:18.465Z,76.06
2022-10-17T11:20:17.460Z,75.46
2022-10-17T11:21:17.518Z,75.76
2022-10-17T11:22:16.587Z,76.46
2022-10-17T11:23:16.671Z,75.37
2022-10-17T11:24:16.673Z,75.87
2022-10-17T11:25:16.712Z,77.67
2022-10-17T11:26:16.772Z,76.06
2022-10-17T11:27:16.823Z,75.16
2022-10-17T11:28:16.903Z,75.26
2022-10-17T11:29:16.977Z,74.96
2022-10-17T11:30:17.004Z,74.46
2022-10-17T11:31:17.046Z,75.46
2022-10-17T11:32:16.047Z,75.56
2022-10-17T11:33:17.163Z,74.56
2022-10-17T11:34:17.203Z,74.26
2022-10-17T11:35:16.223Z,75.16
2022-10-17T11:36:31.805Z,75.96
2022-10-17T11:37:18.418Z,75.37
2022-10-17T11:38:16.435Z,74.46
2022-10-17T11:39:17.529Z,75.56
2022-10-17T11:40:19.196Z,75.16
2022-10-17T11:41:18.564Z,76.17
2022-10-17T11:42:17.620Z,75.52
2022-10-17T11:43:16.632Z,74.73
2022-10-17T11:44:16.699Z,74.13
2022-10-17T11:45:17.874Z,75.43
2022-10-17T11:46:16.770Z,75.23
2022-10-17T11:47:16.824Z,75.13
2022-10-17T11:48:16.878Z,74.13
2022-10-17T11:49:20.077Z,75.33
2022-10-17T11:52:31.598Z,76.23
2022-10-17T11:53:17.072Z,75.13
2022-10-17T11:54:16.122Z,75.43
2022-10-17T11:55:16.208Z,75.89
2022-10-17T11:56:16.237Z,76.29
2022-10-17T11:57:16.329Z,75.09
2022-10-17T11:58:16.408Z,75.99
2022-10-17T11:59:16.403Z,74.09
2022-10-17T12:00:16.513Z,73.72
2022-10-17T12:01:16.513Z,76.33
2022-10-17T12:02:16.676Z,74.93
2022-10-17T12:03:16.560Z,75.13
2022-10-17T12:04:16.664Z,74.83
2022-10-17T12:05:18.632Z,74.53
2022-10-17T12:06:16.672Z,75.52
2022-10-17T12:07:16.730Z,75.93
2022-10-17T12:08:15.709Z,75.13
2022-10-17T12:09:16.816Z,74.13
2022-10-17T12:10:17.852Z,75.33
2022-10-17T12:11:15.806Z,74.03
2022-10-17T12:12:17.956Z,74.43
2022-10-17T12:13:17.921Z,74.22
2022-10-17T12:14:15.913Z,74.09
2022-10-17T12:15:16.956Z,73.69
2022-10-17T12:16:17.684Z,75.09
2022-10-17T12:17:17.035Z,74.39
2022-10-17T12:18:18.198Z,73.69
2022-10-17T12:19:17.077Z,74.19
2022-10-17T12:20:17.126Z,73.59
2022-10-17T12:21:18.796Z,73.69
2022-10-17T12:22:17.224Z,74.99
2022-10-17T12:23:18.316Z,73.59
2022-10-17T12:24:19.313Z,73.39
2022-10-17T12:25:18.332Z,74.59
2022-10-17T12:26:18.346Z,74.99
2022-10-17T12:27:17.830Z,74.53
2022-10-17T12:28:15.381Z,75.93
2022-10-17T12:29:15.480Z,74.53
2022-10-17T12:30:15.494Z,72.53
2022-10-17T12:31:16.610Z,73.63
2022-10-17T12:32:15.602Z,74.43
2022-10-17T12:33:16.690Z,74.53
2022-10-17T12:34:17.131Z,73.93
2022-10-17T12:35:16.828Z,73.53
2022-10-17T12:36:17.808Z,74.22
2022-10-17T12:37:15.986Z,75.73
2022-10-17T12:38:16.951Z,74.43
2022-10-17T12:39:15.983Z,75.52
2022-10-17T12:40:16.206Z,74.93
2022-10-17T12:41:16.680Z,75.43
2022-10-17T12:42:17.171Z,73.93
2022-10-17T12:43:17.275Z,73.72
2022-10-17T12:44:15.555Z,74.43
2022-10-17T12:45:15.297Z,74.93
2022-10-17T12:46:15.471Z,75.02
2022-10-17T12:47:17.410Z,74.63
2022-10-17T12:48:16.653Z,75.63
2022-10-17T12:49:15.510Z,75.02
2022-10-17T12:50:16.608Z,74.33
2022-10-17T12:51:35.768Z,76.03
2022-10-17T12:52:16.861Z,75.83
2022-10-17T12:53:18.463Z,74.66
2022-10-17T12:54:15.886Z,76.26
2022-10-17T12:55:15.945Z,75.37
2022-10-17T12:56:17.060Z,75.06